createdAt,value
2023-05-02T00:00:37.818Z,12.63
2023-05-02T00:03:06.298Z,8.63
2023-05-02T00:05:36.123Z,8.57
2023-05-02T00:08:04.055Z,8.10
2023-05-02T00:10:31.942Z,10.13
2023-05-02T00:12:59.798Z,7.60
2023-05-02T00:15:28.461Z,8.40
2023-05-02T00:17:56.507Z,7.90
2023-05-02T00:20:24.575Z,14.83
2023-05-02T00:22:53.759Z,6.50
2023-05-02T00:25:21.803Z,7.10
2023-05-02T00:27:51.087Z,8.07
2023-05-02T00:30:21.129Z,6.53
2023-05-02T00:32:49.038Z,6.30
2023-05-02T00:35:17.227Z,7.90
2023-05-02T00:37:45.969Z,7.93
2023-05-02T00:40:15.856Z,7.47
2023-05-02T00:42:45.973Z,8.70
2023-05-02T00:45:13.868Z,6.07
2023-05-02T00:47:41.899Z,7.00
2023-05-02T00:50:10.362Z,6.07
2023-05-02T00:52:38.726Z,7.10
2023-05-02T00:55:08.013Z,8.73
2023-05-02T00:57:37.296Z,10.43
2023-05-02T01:00:06.933Z,8.03
2023-05-02T01:02:42.266Z,7.20
2023-05-02T01:05:16.715Z,7.40
2023-05-02T01:08:04.534Z,8.50
2023-05-02T01:10:46.381Z,7.30
2023-05-02T01:13:23.034Z,7.87
2023-05-02T01:15:52.885Z,7.57
2023-05-02T01:18:23.696Z,8.13
2023-05-02T01:21:02.403Z,8.10
2023-05-02T01:23:39.813Z,18.07
2023-05-02T01:26:16.614Z,6.43
2023-05-02T01:28:56.590Z,10.70
2023-05-02T01:31:26.312Z,7.77
2023-05-02T01:33:55.864Z,6.57
2023-05-02T01:36:27.968Z,7.10
2023-05-02T01:38:57.925Z,8.87
2023-05-02T01:41:28.438Z,8.53
2023-05-02T01:44:00.163Z,10.77
2023-05-02T01:46:32.724Z,8.67
2023-05-02T01:49:04.403Z,8.53
2023-05-02T01:51:34.742Z,8.47
2023-05-02T01:54:06.201Z,6.67
2023-05-02T01:56:36.640Z,10.43
2023-05-02T01:59:07.611Z,6.33
2023-05-02T02:01:37.707Z,6.87
2023-05-02T02:04:08.305Z,8.87
2023-05-02T02:06:36.487Z,7.63
2023-05-02T02:09:04.770Z,9.90
2023-05-02T02:11:45.014Z,6.10
2023-05-02T02:14:19.683Z,5.77
2023-05-02T02:16:48.170Z,7.23
2023-05-02T02:19:16.577Z,5.87
2023-05-02T02:21:48.165Z,8.27
2023-05-02T02:24:19.653Z,10.90
2023-05-02T02:26:47.557Z,7.90
2023-05-02T02:29:16.725Z,6.10
2023-05-02T02:31:44.714Z,10.20
2023-05-02T02:34:12.975Z,8.73
2023-05-02T02:36:47.621Z,6.87
2023-05-02T02:39:31.130Z,6.53
2023-05-02T02:42:07.243Z,7.20
2023-05-02T02:44:47.518Z,7.83
2023-05-02T02:47:24.809Z,8.20
2023-05-02T02:50:10.724Z,8.03
2023-05-02T02:52:47.081Z,7.23
2023-05-02T02:55:25.561Z,7.90
2023-05-02T02:58:00.372Z,6.87
2023-05-02T03:00:30.215Z,6.30
2023-05-02T03:02:58.755Z,5.97
2023-05-02T03:05:26.948Z,7.40
2023-05-02T03:07:54.996Z,10.07
2023-05-02T03:10:24.226Z,8.43
2023-05-02T03:12:55.561Z,7.67
2023-05-02T03:15:46.174Z,8.57
2023-05-02T03:18:14.326Z,9.10
2023-05-02T03:20:42.245Z,8.03
2023-05-02T03:23:11.275Z,13.07
2023-05-02T03:25:39.814Z,8.57
2023-05-02T03:28:12.348Z,7.40
2023-05-02T03:30:43.320Z,8.53
2023-05-02T03:33:12.041Z,7.27
2023-05-02T03:35:43.185Z,7.23
2023-05-02T03:38:12.853Z,13.03
2023-05-02T03:40:40.831Z,9.07
2023-05-02T03:43:12.551Z,8.40
2023-05-02T03:45:41.311Z,13.40
2023-05-02T03:48:11.109Z,9.80
2023-05-02T03:50:39.428Z,13.27
2023-05-02T03:53:08.377Z,7.83
2023-05-02T03:55:45.713Z,9.00
2023-05-02T03:58:20.977Z,8.87
2023-05-02T04:00:49.116Z,10.23
2023-05-02T04:03:18.678Z,11.07
2023-05-02T04:05:47.255Z,11.87
2023-05-02T04:08:17.500Z,8.17
2023-05-02T04:10:46.040Z,9.93
2023-05-02T04:13:15.168Z,9.00
2023-05-02T04:15:46.422Z,9.73
2023-05-02T04:18:18.241Z,9.50
2023-05-02T04:20:46.270Z,9.50
2023-05-02T04:23:17.726Z,9.20
2023-05-02T04:25:53.171Z,10.33
2023-05-02T04:28:22.906Z,10.63
2023-05-02T04:30:51.604Z,11.50
2023-05-02T04:33:24.105Z,11.53
2023-05-02T04:35:53.670Z,12.00
2023-05-02T04:38:23.664Z,11.43
2023-05-02T04:40:52.581Z,11.77
2023-05-02T04:43:26.235Z,8.27
2023-05-02T04:46:01.117Z,11.20
2023-05-02T04:48:35.155Z,11.27
2023-05-02T04:51:03.403Z,10.83
2023-05-02T04:53:32.226Z,8.43
2023-05-02T04:56:00.286Z,9.93
2023-05-02T04:58:28.701Z,11.03
2023-05-02T05:01:03.694Z,10.33
2023-05-02T05:03:33.210Z,9.60
2023-05-02T05:06:03.492Z,10.60
2023-05-02T05:08:31.978Z,11.93
2023-05-02T05:11:00.500Z,11.53
2023-05-02T05:13:29.075Z,16.37
2023-05-02T05:15:57.037Z,10.70
2023-05-02T05:18:29.108Z,10.83
2023-05-02T05:20:57.049Z,11.53
2023-05-02T05:23:26.334Z,9.53
2023-05-02T05:25:55.541Z,12.73
2023-05-02T05:28:23.482Z,14.40
2023-05-02T05:30:51.758Z,13.27
2023-05-02T05:33:23.213Z,14.27
2023-05-02T05:35:52.002Z,10.30
2023-05-02T05:38:20.410Z,12.17
2023-05-02T05:40:51.995Z,10.53
2023-05-02T05:43:20.232Z,9.63
2023-05-02T05:45:48.045Z,9.20
2023-05-02T05:48:16.405Z,11.73
2023-05-02T05:50:46.788Z,11.30
2023-05-02T05:53:14.882Z,11.37
2023-05-02T05:55:44.521Z,12.73
2023-05-02T05:58:14.090Z,12.70
2023-05-02T06:00:43.568Z,13.67
2023-05-02T06:03:11.684Z,10.67
2023-05-02T06:05:39.608Z,11.67
2023-05-02T06:08:08.686Z,11.03
2023-05-02T06:10:36.542Z,12.93
2023-05-02T06:13:04.993Z,12.90
2023-05-02T06:15:38.311Z,11.53
2023-05-02T06:18:07.918Z,15.60
2023-05-02T06:20:36.987Z,14.77
2023-05-02T06:23:05.324Z,11.63
2023-05-02T06:25:33.949Z,14.07
2023-05-02T06:28:01.849Z,13.87
2023-05-02T06:30:29.732Z,13.13
2023-05-02T06:32:59.454Z,12.83
2023-05-02T06:35:27.568Z,14.17
2023-05-02T06:37:55.477Z,14.83
2023-05-02T06:40:23.316Z,14.00
2023-05-02T06:42:51.234Z,13.93
2023-05-02T06:45:19.095Z,18.07
2023-05-02T06:47:47.002Z,20.53
2023-05-02T06:50:17.126Z,20.17
2023-05-02T06:52:45.027Z,16.60
2023-05-02T06:55:13.263Z,17.67
2023-05-02T06:57:41.710Z,20.77
2023-05-02T07:00:11.623Z,17.47
2023-05-02T07:02:39.521Z,23.10
2023-05-02T07:05:08.102Z,20.27
2023-05-02T07:07:37.390Z,21.23
2023-05-02T07:10:06.095Z,20.40
2023-05-02T07:12:34.014Z,18.23
2023-05-02T07:15:01.880Z,20.97
2023-05-02T07:17:30.049Z,23.73
2023-05-02T07:19:57.882Z,18.20
2023-05-02T07:22:26.172Z,24.37
2023-05-02T07:25:00.657Z,20.63
2023-05-02T07:27:28.995Z,22.27
2023-05-02T07:29:56.810Z,22.53
2023-05-02T07:32:26.511Z,22.00
2023-05-02T07:34:56.321Z,24.50
2023-05-02T07:37:24.440Z,22.60
2023-05-02T07:39:52.566Z,24.80
2023-05-02T07:42:21.819Z,28.13
2023-05-02T07:44:49.655Z,29.40
2023-05-02T07:47:17.466Z,29.53
2023-05-02T07:49:45.358Z,28.13
2023-05-02T07:52:13.276Z,30.43
2023-05-02T07:54:41.345Z,34.17
2023-05-02T07:57:09.699Z,37.73
2023-05-02T07:59:39.657Z,39.47
2023-05-02T08:02:07.890Z,37.90
2023-05-02T08:04:35.951Z,38.57
2023-05-02T08:07:04.133Z,39.47
2023-05-02T08:09:32.151Z,40.47
2023-05-02T08:11:59.987Z,40.50
2023-05-02T08:14:28.188Z,37.90
2023-05-02T08:16:57.384Z,38.33
2023-05-02T08:19:25.766Z,39.57
2023-05-02T08:21:55.122Z,45.23
2023-05-02T08:24:23.201Z,38.73
2023-05-02T08:26:51.090Z,45.57
2023-05-02T08:29:18.905Z,38.43
2023-05-02T08:31:46.835Z,39.20
2023-05-02T08:34:16.438Z,39.47
2023-05-02T08:36:44.278Z,40.80
2023-05-02T08:39:12.207Z,49.50
2023-05-02T08:41:40.224Z,42.77
2023-05-02T08:44:08.883Z,40.20
2023-05-02T08:46:37.737Z,41.40
2023-05-02T08:49:07.562Z,39.43
2023-05-02T08:51:39.338Z,36.03
2023-05-02T08:54:10.847Z,35.77
2023-05-02T08:56:39.206Z,37.93
2023-05-02T08:59:08.211Z,32.53
2023-05-02T09:01:37.209Z,33.17
2023-05-02T09:04:05.646Z,34.40
2023-05-02T09:06:33.581Z,38.27
2023-05-02T09:09:03.518Z,38.87
2023-05-02T09:11:31.552Z,39.03
2023-05-02T09:14:04.037Z,36.53
2023-05-02T09:16:40.529Z,37.33
2023-05-02T09:19:08.734Z,39.57
2023-05-02T09:21:38.163Z,36.40
2023-05-02T09:24:18.526Z,41.03
2023-05-02T09:26:58.768Z,38.67
2023-05-02T09:29:28.738Z,39.43
2023-05-02T09:31:56.977Z,41.10
2023-05-02T09:34:25.123Z,35.27
2023-05-02T09:36:54.454Z,36.17
2023-05-02T09:39:26.250Z,38.00
2023-05-02T09:41:54.889Z,35.23
2023-05-02T09:44:24.464Z,32.93
2023-05-02T09:46:53.788Z,33.67
2023-05-02T09:49:42.932Z,34.27
2023-05-02T09:52:12.140Z,31.43
2023-05-02T09:54:41.458Z,35.10
2023-05-02T09:57:11.009Z,29.37
2023-05-02T09:59:40.305Z,36.50
2023-05-02T10:02:11.117Z,35.73
2023-05-02T10:04:40.496Z,32.53
2023-05-02T10:07:10.911Z,32.80
2023-05-02T10:09:44.327Z,32.10
2023-05-02T10:12:17.016Z,33.17
2023-05-02T10:14:50.755Z,29.70
2023-05-02T10:17:28.016Z,27.77
2023-05-02T10:20:01.717Z,28.97
2023-05-02T10:22:31.062Z,25.60
2023-05-02T10:25:02.152Z,25.73
2023-05-02T10:27:31.874Z,21.93
2023-05-02T10:30:02.399Z,22.13
2023-05-02T10:32:30.749Z,19.03
2023-05-02T10:35:03.699Z,18.33
2023-05-02T10:37:33.967Z,22.47
2023-05-02T10:40:03.956Z,19.23
2023-05-02T10:42:32.632Z,24.90
2023-05-02T10:45:01.484Z,23.70
2023-05-02T10:47:30.422Z,21.77
2023-05-02T10:50:00.369Z,23.03
2023-05-02T10:52:30.669Z,26.90
2023-05-02T10:55:19.889Z,20.53
2023-05-02T10:58:24.108Z,22.33
2023-05-02T11:00:52.096Z,21.23
2023-05-02T11:03:58.300Z,22.60
2023-05-02T11:06:27.730Z,23.27
2023-05-02T11:09:31.641Z,23.33
2023-05-02T11:12:02.101Z,22.00
2023-05-02T11:14:49.774Z,21.60
2023-05-02T11:17:18.976Z,26.70
2023-05-02T11:20:29.895Z,26.07
2023-05-02T11:22:59.961Z,21.80
2023-05-02T11:25:35.978Z,26.57
2023-05-02T11:28:08.795Z,22.27
2023-05-02T11:30:41.924Z,23.23
2023-05-02T11:33:17.075Z,22.53
2023-05-02T11:35:46.734Z,22.37
2023-05-02T11:38:16.943Z,23.37
2023-05-02T11:40:59.017Z,21.17
2023-05-02T11:43:31.834Z,28.40
2023-05-02T11:46:01.730Z,24.03
2023-05-02T11:48:31.547Z,25.60
2023-05-02T11:51:03.476Z,26.33
2023-05-02T11:53:32.103Z,26.40
2023-05-02T11:56:01.442Z,23.57
2023-05-02T11:58:32.880Z,25.90
2023-05-02T12:01:13.098Z,25.20
2023-05-02T12:03:41.307Z,25.03
2023-05-02T12:06:12.210Z,25.23
2023-05-02T12:08:41.449Z,28.17
2023-05-02T12:11:10.094Z,26.90
2023-05-02T12:13:50.526Z,22.83
2023-05-02T12:16:20.741Z,25.50
2023-05-02T12:18:49.424Z,27.53
2023-05-02T12:21:18.384Z,27.20
2023-05-02T12:23:46.805Z,25.87
2023-05-02T12:26:18.508Z,29.70
2023-05-02T12:28:51.549Z,24.47
2023-05-02T12:31:20.082Z,27.83
2023-05-02T12:33:50.255Z,26.53
2023-05-02T12:36:19.232Z,24.13
2023-05-02T12:38:53.305Z,31.60
2023-05-02T12:41:32.396Z,29.37
2023-05-02T12:44:02.037Z,29.20
2023-05-02T12:46:31.348Z,28.77
2023-05-02T12:49:03.525Z,23.37
2023-05-02T12:51:33.004Z,29.27
2023-05-02T12:54:01.367Z,25.20
2023-05-02T12:56:32.538Z,23.77
2023-05-02T12:59:05.179Z,27.27
2023-05-02T13:01:34.991Z,25.07
2023-05-02T13:04:03.322Z,27.37
2023-05-02T13:06:31.793Z,29.97
2023-05-02T13:09:00.178Z,24.73
2023-05-02T13:11:28.072Z,25.50
2023-05-02T13:13:56.565Z,28.23
2023-05-02T13:16:26.196Z,21.47
2023-05-02T13:18:54.338Z,23.77
2023-05-02T13:21:22.274Z,22.63
2023-05-02T13:23:51.874Z,24.90
2023-05-02T13:26:19.914Z,23.67
2023-05-02T13:28:47.750Z,25.60
2023-05-02T13:31:15.768Z,23.60
2023-05-02T13:33:46.123Z,27.43
2023-05-02T13:36:14.391Z,24.03
2023-05-02T13:38:42.315Z,20.93
2023-05-02T13:41:10.336Z,21.30
2023-05-02T13:43:39.370Z,17.87
2023-05-02T13:46:07.417Z,17.13
2023-05-02T13:48:37.322Z,19.40
2023-05-02T13:51:06.622Z,22.93
2023-05-02T13:53:34.481Z,23.67
2023-05-02T13:56:02.377Z,30.23
2023-05-02T13:58:30.254Z,24.90
2023-05-02T14:00:58.242Z,24.07
2023-05-02T14:03:26.377Z,22.37
2023-05-02T14:05:54.387Z,20.97
2023-05-02T14:08:23.621Z,25.10
2023-05-02T14:10:51.646Z,22.57
2023-05-02T14:13:19.594Z,19.43
2023-05-02T14:15:47.479Z,19.53
2023-05-02T14:18:16.639Z,19.90
2023-05-02T14:20:44.625Z,16.80
2023-05-02T14:23:12.655Z,17.50
2023-05-02T14:25:43.093Z,18.17
2023-05-02T14:28:11.850Z,14.20
2023-05-02T14:30:41.117Z,13.57
2023-05-02T14:33:09.392Z,16.77
2023-05-02T14:35:55.557Z,19.77
2023-05-02T14:38:23.413Z,19.80
2023-05-02T14:40:52.617Z,17.67
2023-05-02T14:43:20.545Z,18.07
2023-05-02T14:45:48.417Z,19.17
2023-05-02T14:48:17.432Z,16.30
2023-05-02T14:50:45.674Z,14.77
2023-05-02T14:53:14.224Z,16.97
2023-05-02T14:55:42.265Z,18.53
2023-05-02T14:58:11.887Z,14.90
2023-05-02T15:00:40.061Z,18.20
2023-05-02T15:03:09.917Z,14.03
2023-05-02T15:05:37.956Z,15.70
2023-05-02T15:08:06.708Z,20.27
2023-05-02T15:10:38.018Z,14.57
2023-05-02T15:13:06.676Z,16.43
2023-05-02T15:15:37.177Z,14.83
2023-05-02T15:18:05.413Z,14.17
2023-05-02T15:20:33.308Z,16.43
2023-05-02T15:23:03.469Z,15.83
2023-05-02T15:25:32.178Z,17.13
2023-05-02T15:28:00.052Z,15.23
2023-05-02T15:30:28.096Z,14.13
2023-05-02T15:32:57.392Z,11.80
2023-05-02T15:35:25.865Z,14.97
2023-05-02T15:37:53.773Z,12.80
2023-05-02T15:40:21.928Z,11.83
2023-05-02T15:42:49.788Z,12.43
2023-05-02T15:45:17.901Z,10.50
2023-05-02T15:47:45.723Z,10.77
2023-05-02T15:50:15.826Z,15.00
2023-05-02T15:52:43.715Z,13.37
2023-05-02T15:55:11.788Z,10.57
2023-05-02T15:57:39.658Z,9.23
2023-05-02T16:00:11.201Z,7.57
2023-05-02T16:02:39.056Z,8.03
2023-05-02T16:05:07.430Z,7.53
2023-05-02T16:07:36.666Z,7.00
2023-05-02T16:10:05.039Z,6.00
2023-05-02T16:12:33.083Z,8.17
2023-05-02T16:15:03.146Z,6.63
2023-05-02T16:17:31.674Z,10.10
2023-05-02T16:20:00.052Z,8.33
2023-05-02T16:22:28.846Z,6.10
2023-05-02T16:24:58.100Z,7.73
2023-05-02T16:27:25.897Z,8.23
2023-05-02T16:29:53.762Z,6.10
2023-05-02T16:32:23.214Z,4.00
2023-05-02T16:34:51.200Z,4.30
2023-05-02T16:37:19.003Z,8.13
2023-05-02T16:39:47.298Z,6.97
2023-05-02T16:42:16.551Z,4.90
2023-05-02T16:44:44.800Z,4.90
2023-05-02T16:47:12.617Z,3.23
2023-05-02T16:49:40.488Z,3.60
2023-05-02T16:52:08.350Z,1.77
2023-05-02T16:54:36.195Z,3.07
2023-05-02T16:57:04.091Z,4.10
2023-05-02T16:59:33.306Z,3.47
2023-05-02T17:02:01.367Z,2.80
2023-05-02T17:04:29.629Z,3.07
2023-05-02T17:06:58.131Z,3.07
2023-05-02T17:09:26.059Z,2.87
2023-05-02T17:11:53.904Z,2.87
2023-05-02T17:14:21.921Z,4.47
2023-05-02T17:16:51.154Z,5.27
2023-05-02T17:19:18.994Z,4.03
2023-05-02T17:21:47.198Z,6.00
2023-05-02T17:24:15.285Z,3.30
2023-05-02T17:26:43.099Z,6.20
2023-05-02T17:29:11.347Z,4.00
2023-05-02T17:31:39.347Z,4.57
2023-05-02T17:34:08.621Z,5.60
2023-05-02T17:36:36.622Z,6.87
2023-05-02T17:39:05.203Z,4.90
2023-05-02T17:41:33.106Z,4.73
2023-05-02T17:44:11.004Z,8.13
2023-05-02T17:46:39.348Z,5.10
2023-05-02T17:49:08.940Z,5.30
2023-05-02T17:51:37.126Z,5.03
2023-05-02T17:54:05.525Z,5.30
2023-05-02T17:56:34.564Z,3.67
2023-05-02T17:59:02.874Z,5.33
2023-05-02T18:01:31.067Z,4.17
2023-05-02T18:03:59.996Z,3.27
2023-05-02T18:06:29.929Z,5.67
2023-05-02T18:08:58.530Z,2.67
2023-05-02T18:11:38.620Z,4.83
2023-05-02T18:14:07.197Z,4.63
2023-05-02T18:16:36.321Z,5.87
2023-05-02T18:19:04.419Z,5.87
2023-05-02T18:21:37.422Z,4.47
2023-05-02T18:24:06.823Z,6.13
2023-05-02T18:26:34.696Z,5.13
2023-05-02T18:29:02.499Z,4.63
2023-05-02T18:31:30.982Z,7.43
2023-05-02T18:33:58.936Z,4.83
2023-05-02T18:36:28.490Z,7.47
2023-05-02T18:39:00.170Z,10.27
2023-05-02T18:41:28.079Z,4.80
2023-05-02T18:43:58.012Z,6.33
2023-05-02T18:46:26.556Z,5.87
2023-05-02T18:48:54.397Z,5.83
2023-05-02T18:51:22.758Z,7.63
2023-05-02T18:53:51.471Z,7.80
2023-05-02T18:56:21.415Z,6.67
2023-05-02T18:58:49.538Z,7.17
2023-05-02T19:01:20.191Z,5.97
2023-05-02T19:03:48.558Z,5.23
2023-05-02T19:06:17.816Z,5.73
2023-05-02T19:08:46.437Z,6.53
2023-05-02T19:11:14.524Z,6.67
2023-05-02T19:13:43.725Z,6.30
2023-05-02T19:16:13.673Z,5.37
2023-05-02T19:18:43.336Z,6.00
2023-05-02T19:21:13.549Z,5.53
2023-05-02T19:23:42.858Z,5.00
2023-05-02T19:26:14.107Z,4.40
2023-05-02T19:28:44.608Z,6.70
2023-05-02T19:31:14.906Z,5.50
2023-05-02T19:33:49.964Z,7.93
2023-05-02T19:36:18.764Z,7.53
2023-05-02T19:38:49.012Z,7.93
2023-05-02T19:41:17.142Z,7.10
2023-05-02T19:43:46.868Z,5.30
2023-05-02T19:46:15.175Z,6.87
2023-05-02T19:48:43.035Z,7.83
2023-05-02T19:51:11.653Z,9.37
2023-05-02T19:53:39.724Z,8.83
2023-05-02T19:56:08.358Z,5.37
2023-05-02T19:58:36.362Z,6.07
2023-05-02T20:01:05.839Z,7.17
2023-05-02T20:03:34.828Z,5.70
2023-05-02T20:06:03.254Z,9.73
2023-05-02T20:08:31.485Z,6.53
2023-05-02T20:10:59.604Z,6.83
2023-05-02T20:13:27.539Z,8.10
2023-05-02T20:15:55.416Z,6.70
2023-05-02T20:18:24.606Z,4.90
2023-05-02T20:20:52.475Z,8.87
2023-05-02T20:23:20.612Z,8.30
2023-05-02T20:25:48.503Z,7.23
2023-05-02T20:28:16.383Z,8.13
2023-05-02T20:30:44.246Z,6.60
2023-05-02T20:33:16.239Z,7.87
2023-05-02T20:35:46.446Z,6.60
2023-05-02T20:38:17.680Z,8.13
2023-05-02T20:40:45.693Z,11.80
2023-05-02T20:43:14.367Z,7.00
2023-05-02T20:45:42.240Z,10.43
2023-05-02T20:48:10.640Z,7.63
2023-05-02T20:50:39.480Z,7.53
2023-05-02T20:53:10.372Z,7.30
2023-05-02T20:55:38.475Z,9.00
2023-05-02T20:58:06.268Z,9.10
2023-05-02T21:00:34.082Z,9.10
2023-05-02T21:03:02.002Z,9.53
2023-05-02T21:05:30.049Z,10.33
2023-05-02T21:07:57.924Z,10.93
2023-05-02T21:10:27.862Z,11.03
2023-05-02T21:12:55.682Z,7.97
2023-05-02T21:15:23.525Z,6.93
2023-05-02T21:17:52.402Z,8.53
2023-05-02T21:20:20.296Z,9.40
2023-05-02T21:22:48.130Z,10.50
2023-05-02T21:25:16.230Z,10.43
2023-05-02T21:27:45.574Z,6.60
2023-05-02T21:30:14.743Z,6.87
2023-05-02T21:32:43.594Z,7.80
2023-05-02T21:35:12.132Z,7.00
2023-05-02T21:37:40.130Z,6.63
2023-05-02T21:40:09.271Z,8.43
2023-05-02T21:42:37.105Z,9.40
2023-05-02T21:45:07.622Z,10.13
2023-05-02T21:47:35.505Z,8.87
2023-05-02T21:50:05.116Z,10.93
2023-05-02T21:52:33.047Z,7.80
2023-05-02T21:55:01.099Z,10.43
2023-05-02T21:57:28.908Z,7.37
2023-05-02T21:59:56.727Z,8.00
2023-05-02T22:02:26.049Z,8.07
2023-05-02T22:04:54.109Z,9.00
2023-05-02T22:07:21.906Z,7.33
2023-05-02T22:09:49.699Z,7.33
2023-05-02T22:12:17.522Z,6.77
2023-05-02T22:14:46.065Z,8.37
2023-05-02T22:17:14.094Z,8.10
2023-05-02T22:19:43.357Z,8.23
2023-05-02T22:22:11.198Z,8.03
2023-05-02T22:24:39.079Z,9.23
2023-05-02T22:27:07.164Z,8.37
2023-05-02T22:29:34.961Z,7.87
2023-05-02T22:32:02.822Z,7.30
2023-05-02T22:34:31.386Z,7.80
2023-05-02T22:37:00.574Z,8.37
2023-05-02T22:39:28.360Z,8.30
2023-05-02T22:41:57.148Z,8.13
2023-05-02T22:44:24.963Z,8.20
2023-05-02T22:46:52.968Z,9.47
2023-05-02T22:49:21.258Z,9.93
2023-05-02T22:51:49.235Z,6.97
2023-05-02T22:54:18.472Z,6.90
2023-05-02T22:56:46.382Z,11.43
2023-05-02T22:59:15.404Z,7.03
2023-05-02T23:01:43.213Z,10.63
2023-05-02T23:04:11.081Z,13.10
2023-05-02T23:06:38.906Z,12.07
2023-05-02T23:09:08.334Z,11.57
2023-05-02T23:11:37.464Z,7.90
2023-05-02T23:14:05.458Z,9.33
2023-05-02T23:16:33.447Z,10.97
2023-05-02T23:19:01.398Z,15.63
2023-05-02T23:21:29.300Z,9.97
2023-05-02T23:23:57.315Z,10.20
2023-05-02T23:26:25.194Z,8.63
2023-05-02T23:28:54.386Z,12.20
2023-05-02T23:31:22.312Z,8.40
2023-05-02T23:33:50.236Z,11.23
2023-05-02T23:36:18.157Z,8.03
2023-05-02T23:38:46.270Z,10.10
2023-05-02T23:41:14.201Z,6.43
2023-05-02T23:43:42.300Z,8.33
2023-05-02T23:46:11.577Z,6.90
2023-05-02T23:48:39.438Z,6.67
2023-05-02T23:51:07.347Z,8.40
2023-05-02T23:57:14.717Z,10.70
2023-05-02T23:59:42.660Z,17.20
